Ana Sayfa
METAR-TAF:

METAR-TAF

Havaalanları :

La Paz, Meksika

Enlem: 24-04N, Boylam: 110-22W, yükseklik: 21 m

Güncel hava durumu gözlemi

Rapor saat 13:45 UTC de 1 saat ve 8 dakika önce yapıldı.
Rüzgar güneydan 7 kt
Sıcaklık 21°C
Nem 38%
Basınç 1012 hPa
Görüş mesafesi: 16.1 km
Açık gökyüzü

METAR: MMLP 221345Z 18007KT 10SM SKC 21/06 A2987 RMK HZY

Saat: 08:53 (14:53 UTC)

Tahmin

Rapor saat 05:28 UTC de 9 saat ve 25 dakika önce yapıldı.
Ayın 22'si saat 06 UTC'den ayın 23'si saat 06 UTC'ye kadar geçerli Tahmin
Rüzgar güney/güneydoğudan 5 kt
Görüş mesafesi: 10 km
20000 ft yükseklikte parçalı bulutlu
Ayın 22'si saat 1500 UTC'den
Rüzgar batı/kuzeybatıdan 10 kt
Görüş mesafesi: 10 km
20000 ft yükseklikte parçalı bulutlu
Ayın 23'si saat 0000 UTC'den
Rüzgar batıdan 10 kt
Görüş mesafesi: 10 km
20000 ft yükseklikte parçalı bulutlu

TAF: MMLP 220528Z 2206/2306 16005KT P6SM SCT200 FM221500 30010KT P6SM SCT200 FM230000 27010KT P6SM SCT200

4.000'den fazla havaalanı için hava durumu gözlemleri ve tahminleri (METAR ve TAF raporları).

Kullanılabilir istasyonlar harita üzerinde sarı ve kırmızı noktalarla gösterilir.

İstasyonun adını görmek için fareyi noktanın üzerinde gezdirin.

Sonrasında hava gözlem ve tahminlerini görmek için tıklayın.

Haritayı değiştirmek için: yaklaştırmak için siyah artı işaretli yeşil düğmeye ve uzaklaştırmak için de eksi işaretli düğmeye hızla tıklayın; bitişik haritalar için yeşil okları kullanın.


METAR-TAF: